Redwood City, CA

6:51 AM PDT on September 30, 2014 (GMT -0700)
Chestnut St | Change Station
CLOSE
Current Station
Personal Weather Station
Location: San Carlos, CA
Elevation: 121 ft
Nearby Weather Stations

Elev 121 ft 37.51 °N, 122.27 °W | Updated 6 minutes ago

Partly Cloudy
Partly Cloudy
55.4 °F
Feels Like 55.4 °F
N
0.7
Wind Variable Wind from WSW
Gusts 1.4 mph

Today
High -- | Low -- °F
--% Chance of Precip.
Yesterday
High -- | Low -- °F
Precip. -- in
7:03 AM 6:53 PM
Waxing Crescent, 37% visible
Pressure 29.98 in
Visibility 10.0 miles
Clouds Few 1700 ft
Dew Point 52 °F
Humidity 88%
Rainfall -999.00 in
Snow Depth 0 in , 0 in , 0 in
UV 0 out of 12
Pollen 2.80 out of 12
Ozone Good
PM2.5 Good
Flu Activity Not available.
METAR KSQL 301335Z AUTO 00000KT 10SM FEW017 14/12 A2998 RMK AO2

More Conditions Fewer Conditions

Pressure 29.98 in
Visibility 10.0 miles
Clouds Few 1700 ft
Dew Point 52 °F
Humidity 88%
Rainfall -999.00 in
Snow Depth 0 in , 0 in , 0 in
UV 0 out of 12
Pollen 2.80 out of 12
Ozone Good
PM2.5 Good
Flu Activity Not available.
METAR KSQL 301335Z AUTO 00000KT 10SM FEW017 14/12 A2998 RMK AO2

More Conditions Fewer Conditions

10-Day Weather Forecast

Almanac

Astronomy

Sep. 30, 2014 Rise Set
Actual Time 7:03 AM PDT 6:53 PM PDT
Civil Twilight 6:37 AM PDT 7:19 PM PDT
Nautical Twilight 6:07 AM PDT 7:49 PM PDT
Astronomical Twilight 5:36 AM PDT 8:20 PM PDT
Moon 1:11 PM PDT 11:34 PM PDT
Length of Visible Light 12h 41m
Length of Day
11h 49m
Tomorrow will be 2m 23s shorter.
Waxing Crescent, 37% of the Moon is Illuminated
Today
Waxing Crescent
Oct 1
First Quarter
Oct 8
Full
Oct 15
Last Quarter
Oct 23
New

Today's Extremes

State Highs State Lows

Community

WunderPhotos

Upload Photos

1,757,636 photos uploaded!

Nearby

Air Quality

  Air Quality AQ Index Pollutant
Yesterday Good
PM2.5
Yesterday Good
OZONE
Current Good
PM2.5
Current Good
OZONE
Tuesday Good
PM2.5
Wednesday Good
PM2.5
Thursday Moderate
PM2.5
Friday Moderate
PM2.5
Saturday Moderate
PM2.5

Snow Depth

Station Depth Elevation
Crowder Flat 0 in 5100 ft
Fallen Leaf 0 in 6300 ft
Poison Flat 0 in 7900 ft
Burnside Lake 0 in 8139 ft
Squaw Valley 0 in 8200 ft

Earthquake Activity

City Distance Mag. Time & Date
South Dos Palos, California 95 miles 2.5 9:18 PM PDT
2014-09-29
American Canyon, California 48 miles 2.6 12:17 AM PDT
2014-09-29
South Dos Palos, California 95 miles 2.7 8:46 PM PDT
2014-09-28
South Dos Palos, California 96 miles 4.4 1:45 PM PDT
2014-09-28
Minimum magnitude displayed is 2.5.

Coastal Water Temperatures

Place Temperature
No Stations Reporting

Nearby Weather Stations